createdAt,value
2022-10-25T00:02:25.177Z,101054.53
2022-10-25T00:04:52.318Z,101059.47
2022-10-25T00:07:19.188Z,101060.03
2022-10-25T00:09:46.063Z,101059.34
2022-10-25T00:12:13.002Z,101062.25
2022-10-25T00:14:39.923Z,101057.47
2022-10-25T00:17:06.927Z,101074.94
2022-10-25T00:19:33.819Z,101077.88
2022-10-25T00:22:00.903Z,101075.50
2022-10-25T00:24:27.956Z,101073.84
2022-10-25T00:26:54.806Z,101074.78
2022-10-25T00:29:21.758Z,101071.69
2022-10-25T00:31:48.682Z,101067.16
2022-10-25T00:34:15.568Z,101069.34
2022-10-25T00:36:42.460Z,101077.63
2022-10-25T00:39:09.653Z,101077.34
2022-10-25T00:41:36.621Z,101082.88
2022-10-25T00:44:40.629Z,101083.03
2022-10-25T00:47:21.671Z,101093.25
2022-10-25T00:49:54.753Z,101091.25
2022-10-25T00:52:22.017Z,101102.53
2022-10-25T00:54:53.818Z,101096.31
2022-10-25T00:57:29.816Z,101100.78
2022-10-25T00:59:57.010Z,101098.41
2022-10-25T01:02:24.152Z,101101.38
2022-10-25T01:04:51.651Z,101098.75
2022-10-25T01:07:18.553Z,101094.59
2022-10-25T01:09:45.677Z,101091.16
2022-10-25T01:12:12.578Z,101103.19
2022-10-25T01:14:44.339Z,101101.84
2022-10-25T01:17:20.015Z,101102.03
2022-10-25T01:20:26.684Z,101116.31
2022-10-25T01:23:21.159Z,101120.41
2022-10-25T01:26:37.428Z,101127.25
2022-10-25T01:29:16.065Z,101116.91
2022-10-25T01:31:53.267Z,101131.97
2022-10-25T01:34:28.978Z,101121.78
2022-10-25T01:37:07.360Z,101127.91
2022-10-25T01:40:05.892Z,101136.91
2022-10-25T01:42:49.356Z,101130.09
2022-10-25T01:45:38.742Z,101126.63
2022-10-25T01:48:14.975Z,101128.97
2022-10-25T01:50:46.238Z,101123.34
2022-10-25T01:53:13.395Z,101127.34
2022-10-25T01:55:57.440Z,101121.81
2022-10-25T01:58:43.652Z,101130.44
2022-10-25T02:02:04.852Z,101121.22
2022-10-25T02:04:44.232Z,101119.19
2022-10-25T02:07:19.271Z,101126.50
2022-10-25T02:10:24.552Z,101137.72
2022-10-25T02:13:15.429Z,101126.53
2022-10-25T02:15:52.779Z,101142.28
2022-10-25T02:18:24.911Z,101138.69
2022-10-25T02:20:54.898Z,101137.31
2022-10-25T02:23:23.468Z,101145.25
2022-10-25T02:25:51.424Z,101142.22
2022-10-25T02:28:20.971Z,101144.56
2022-10-25T02:30:49.735Z,101147.59
2022-10-25T02:33:16.673Z,101140.72
2022-10-25T02:35:43.548Z,101140.31
2022-10-25T02:38:10.565Z,101148.97
2022-10-25T02:40:37.860Z,101136.00
2022-10-25T02:43:04.740Z,101144.41
2022-10-25T02:45:31.628Z,101152.34
2022-10-25T02:47:58.502Z,101146.84
2022-10-25T02:50:25.411Z,101144.19
2022-10-25T02:52:52.346Z,101141.75
2022-10-25T02:55:19.244Z,101132.47
2022-10-25T02:57:46.137Z,101147.34
2022-10-25T03:00:14.016Z,101148.16
2022-10-25T03:02:40.905Z,101149.03
2022-10-25T03:05:08.369Z,101156.28
2022-10-25T03:07:35.265Z,101157.91
2022-10-25T03:10:02.218Z,101164.91
2022-10-25T03:12:29.145Z,101165.31
2022-10-25T03:14:56.022Z,101155.81
2022-10-25T03:17:22.926Z,101150.72
2022-10-25T03:19:49.784Z,101147.59
2022-10-25T03:22:16.709Z,101151.63
2022-10-25T03:24:43.639Z,101161.00
2022-10-25T03:27:10.567Z,101168.75
2022-10-25T03:29:37.505Z,101167.78
2022-10-25T03:32:05.660Z,101164.94
2022-10-25T03:34:32.541Z,101179.13
2022-10-25T03:36:59.494Z,101168.66
2022-10-25T03:39:26.494Z,101168.88
2022-10-25T03:41:53.400Z,101182.41
2022-10-25T03:44:20.523Z,101180.06
2022-10-25T03:46:47.453Z,101190.66
2022-10-25T03:49:14.398Z,101188.28
2022-10-25T03:51:41.387Z,101190.38
2022-10-25T03:54:08.453Z,101192.91
2022-10-25T03:56:35.428Z,101194.47
2022-10-25T03:59:02.414Z,101199.59
2022-10-25T04:01:29.380Z,101193.09
2022-10-25T04:03:56.358Z,101196.88
2022-10-25T04:06:23.361Z,101200.84
2022-10-25T04:08:50.307Z,101204.69
2022-10-25T04:11:17.340Z,101217.44
2022-10-25T04:13:44.317Z,101214.31
2022-10-25T04:16:12.415Z,101223.13
2022-10-25T04:18:40.831Z,101223.97
2022-10-25T04:21:07.741Z,101229.19
2022-10-25T04:23:34.720Z,101228.13
2022-10-25T04:26:01.735Z,101223.78
2022-10-25T04:28:28.672Z,101223.94
2022-10-25T04:30:55.589Z,101221.66
2022-10-25T04:33:22.593Z,101212.63
2022-10-25T04:35:57.273Z,101222.84
2022-10-25T04:38:24.701Z,101228.06
2022-10-25T04:40:59.809Z,101240.34
2022-10-25T04:43:29.065Z,101234.91
2022-10-25T04:46:00.596Z,101238.94
2022-10-25T04:48:27.839Z,101234.34
2022-10-25T04:50:54.738Z,101240.56
2022-10-25T04:53:21.676Z,101250.25
2022-10-25T04:56:04.086Z,101259.81
2022-10-25T04:58:32.113Z,101253.78
2022-10-25T05:01:04.840Z,101257.72
2022-10-25T05:03:32.554Z,101245.25
2022-10-25T05:06:18.276Z,101264.22
2022-10-25T05:08:48.807Z,101266.31
2022-10-25T05:11:18.944Z,101262.94
2022-10-25T05:13:46.540Z,101269.00
2022-10-25T05:16:20.435Z,101263.00
2022-10-25T05:18:47.502Z,101262.72
2022-10-25T05:21:16.303Z,101268.06
2022-10-25T05:23:43.499Z,101264.47
2022-10-25T05:26:20.195Z,101267.00
2022-10-25T05:28:49.993Z,101258.00
2022-10-25T05:31:20.306Z,101266.09
2022-10-25T05:33:51.254Z,101267.50
2022-10-25T05:36:19.080Z,101270.34
2022-10-25T05:38:46.769Z,101272.72
2022-10-25T05:41:16.368Z,101278.25
2022-10-25T05:43:44.200Z,101280.88
2022-10-25T05:46:14.601Z,101273.63
2022-10-25T05:48:47.284Z,101278.94
2022-10-25T05:51:34.748Z,101278.44
2022-10-25T05:54:11.771Z,101279.75
2022-10-25T05:56:39.541Z,101280.72
2022-10-25T05:59:09.960Z,101275.44
2022-10-25T06:01:55.135Z,101281.38
2022-10-25T06:04:22.842Z,101279.34
2022-10-25T06:06:52.168Z,101274.31
2022-10-25T06:09:19.168Z,101282.53
2022-10-25T06:11:46.125Z,101280.38
2022-10-25T06:14:13.088Z,101295.72
2022-10-25T06:16:40.197Z,101282.78
2022-10-25T06:19:07.431Z,101290.69
2022-10-25T06:21:34.382Z,101286.31
2022-10-25T06:24:01.730Z,101295.47
2022-10-25T06:26:30.542Z,101291.09
2022-10-25T06:29:01.082Z,101288.78
2022-10-25T06:31:29.943Z,101295.75
2022-10-25T06:33:56.924Z,101304.69
2022-10-25T06:36:26.853Z,101299.03
2022-10-25T06:38:54.346Z,101297.25
2022-10-25T06:41:31.532Z,101302.97
2022-10-25T06:44:05.304Z,101301.69
2022-10-25T06:46:57.866Z,101308.66
2022-10-25T06:49:24.116Z,101309.06
2022-10-25T06:51:51.028Z,101315.34
2022-10-25T06:54:17.976Z,101315.53
2022-10-25T06:56:44.842Z,101313.91
2022-10-25T06:59:11.846Z,101318.56
2022-10-25T07:01:38.809Z,101323.75
2022-10-25T07:04:05.904Z,101322.47
2022-10-25T07:06:35.836Z,101322.66
2022-10-25T07:09:05.068Z,101327.53
2022-10-25T07:11:33.281Z,101342.16
2022-10-25T07:14:01.528Z,101346.09
2022-10-25T07:16:29.047Z,101341.13
2022-10-25T07:19:04.093Z,101345.09
2022-10-25T07:21:32.684Z,101357.81
2022-10-25T07:23:59.675Z,101350.97
2022-10-25T07:26:30.943Z,101350.88
2022-10-25T07:28:59.962Z,101361.47
2022-10-25T07:31:36.633Z,101368.16
2022-10-25T07:34:05.745Z,101358.63
2022-10-25T07:36:33.257Z,101355.31
2022-10-25T07:39:00.846Z,101371.56
2022-10-25T07:41:27.859Z,101368.88
2022-10-25T07:43:55.498Z,101375.47
2022-10-25T07:46:22.988Z,101382.56
2022-10-25T07:48:50.201Z,101375.69
2022-10-25T07:51:18.444Z,101373.22
2022-10-25T07:53:45.375Z,101367.75
2022-10-25T07:56:22.239Z,101370.88
2022-10-25T07:58:53.865Z,101367.41
2022-10-25T08:01:27.009Z,101378.78
2022-10-25T08:03:55.457Z,101377.00
2022-10-25T08:06:24.508Z,101379.88
2022-10-25T08:08:51.545Z,101366.97
2022-10-25T08:11:19.022Z,101368.16
2022-10-25T08:13:49.727Z,101370.94
2022-10-25T08:16:16.809Z,101373.44
2022-10-25T08:18:44.183Z,101374.91
2022-10-25T08:21:11.169Z,101376.06
2022-10-25T08:23:38.111Z,101377.22
2022-10-25T08:26:05.161Z,101377.03
2022-10-25T08:28:32.097Z,101373.69
2022-10-25T08:31:01.182Z,101382.97
2022-10-25T08:33:29.817Z,101378.41
2022-10-25T08:36:00.122Z,101383.88
2022-10-25T08:38:27.028Z,101384.50
2022-10-25T08:41:09.991Z,101390.81
2022-10-25T08:46:43.930Z,101393.91
2022-10-25T08:49:26.710Z,101404.94
2022-10-25T08:51:55.858Z,101404.19
2022-10-25T08:54:29.182Z,101393.16
2022-10-25T08:57:15.617Z,101396.28
2022-10-25T08:59:49.960Z,101398.84
2022-10-25T09:02:36.722Z,101398.72
2022-10-25T09:05:04.826Z,101405.44
2022-10-25T09:08:02.451Z,101407.88
2022-10-25T09:10:55.572Z,101405.94
2022-10-25T09:13:40.314Z,101408.28
2022-10-25T09:16:16.828Z,101411.41
2022-10-25T09:18:52.037Z,101406.81
2022-10-25T09:21:53.568Z,101414.69
2022-10-25T09:24:58.964Z,101411.28
2022-10-25T09:28:03.644Z,101413.84
2022-10-25T09:30:37.639Z,101402.16
2022-10-25T09:33:11.334Z,101410.16
2022-10-25T09:35:45.077Z,101414.44
2022-10-25T09:38:28.564Z,101419.75
2022-10-25T09:41:06.199Z,101409.38
2022-10-25T09:43:45.748Z,101427.94
2022-10-25T09:46:32.040Z,101426.16
2022-10-25T09:49:13.101Z,101423.97
2022-10-25T09:52:24.174Z,101427.00
2022-10-25T09:55:21.572Z,101429.75
2022-10-25T09:57:48.976Z,101420.38
2022-10-25T10:00:16.702Z,101430.34
2022-10-25T10:02:43.744Z,101424.34
2022-10-25T10:05:20.312Z,101418.28
2022-10-25T10:07:50.038Z,101422.38
2022-10-25T10:10:22.944Z,101415.56
2022-10-25T10:13:04.781Z,101426.84
2022-10-25T10:15:51.674Z,101426.69
2022-10-25T10:18:34.732Z,101430.47
2022-10-25T10:21:08.535Z,101425.66
2022-10-25T10:24:02.373Z,101421.97
2022-10-25T10:26:38.589Z,101410.56
2022-10-25T10:29:57.467Z,101416.22
2022-10-25T10:32:33.221Z,101407.16
2022-10-25T10:35:01.806Z,101410.47
2022-10-25T10:37:31.813Z,101407.63
2022-10-25T10:40:24.652Z,101411.72
2022-10-25T10:42:52.831Z,101411.34
2022-10-25T10:45:21.638Z,101404.53
2022-10-25T10:47:51.582Z,101396.75
2022-10-25T10:50:27.266Z,101400.78
2022-10-25T10:53:17.159Z,101395.28
2022-10-25T10:55:51.726Z,101399.38
2022-10-25T10:58:35.681Z,101403.72
2022-10-25T11:01:12.796Z,101405.34
2022-10-25T11:03:59.527Z,101398.81
2022-10-25T11:06:35.238Z,101393.06
2022-10-25T11:09:17.836Z,101393.06
2022-10-25T11:12:05.422Z,101408.00
2022-10-25T11:14:32.518Z,101411.50
2022-10-25T11:17:03.989Z,101417.66
2022-10-25T11:20:00.707Z,101399.53
2022-10-25T11:22:58.920Z,101401.25
2022-10-25T11:25:47.110Z,101403.50
2022-10-25T11:28:19.618Z,101400.44
2022-10-25T11:31:10.873Z,101399.84
2022-10-25T11:33:50.348Z,101407.59
2022-10-25T11:36:42.324Z,101407.69
2022-10-25T11:39:38.792Z,101408.72
2022-10-25T11:43:03.238Z,101403.72
2022-10-25T11:45:41.817Z,101409.84
2022-10-25T11:48:35.576Z,101406.47
2022-10-25T11:51:41.642Z,101396.16
2022-10-25T11:54:33.828Z,101403.44
2022-10-25T11:57:22.257Z,101389.94
2022-10-25T12:00:16.411Z,101390.22
2022-10-25T12:03:13.169Z,101390.34
2022-10-25T12:06:08.524Z,101383.78
2022-10-25T12:08:59.893Z,101379.88
2022-10-25T12:11:43.560Z,101390.19
2022-10-25T12:14:18.457Z,101386.56
2022-10-25T12:16:46.072Z,101385.38
2022-10-25T12:19:24.931Z,101381.09
2022-10-25T12:22:08.643Z,101385.91
2022-10-25T12:25:09.035Z,101379.59
2022-10-25T12:27:37.148Z,101372.63
2022-10-25T12:30:10.701Z,101368.19
2022-10-25T12:33:10.225Z,101360.50
2022-10-25T12:35:50.368Z,101370.44
2022-10-25T12:38:37.883Z,101373.03
2022-10-25T12:41:20.787Z,101371.06
2022-10-25T12:44:24.504Z,101366.03
2022-10-25T12:47:09.460Z,101368.03
2022-10-25T12:50:36.075Z,101371.97
2022-10-25T12:53:16.455Z,101363.56
2022-10-25T12:56:07.162Z,101367.81
2022-10-25T12:59:01.678Z,101365.81
2022-10-25T13:01:49.805Z,101366.53
2022-10-25T13:04:47.405Z,101364.31
2022-10-25T13:07:15.731Z,101355.69
2022-10-25T13:09:42.861Z,101356.78
2022-10-25T13:12:26.294Z,101356.19
2022-10-25T13:14:58.417Z,101347.91
2022-10-25T13:17:25.217Z,101342.66
2022-10-25T13:22:51.250Z,101336.84
2022-10-25T13:25:50.041Z,101339.19
2022-10-25T13:28:16.823Z,101334.66
2022-10-25T13:30:44.864Z,101328.94
2022-10-25T13:33:24.376Z,101327.44
2022-10-25T13:35:51.311Z,101327.81
2022-10-25T13:38:38.890Z,101331.09
2022-10-25T13:41:17.575Z,101322.94
2022-10-25T13:44:04.611Z,101328.50
2022-10-25T13:46:38.705Z,101317.13
2022-10-25T13:49:40.535Z,101331.19
2022-10-25T13:52:23.151Z,101332.47
2022-10-25T13:54:55.225Z,101317.25
2022-10-25T13:57:50.126Z,101314.38
2022-10-25T14:00:40.624Z,101319.56
2022-10-25T14:03:10.626Z,101315.78
2022-10-25T14:05:55.999Z,101309.81
2022-10-25T14:08:39.884Z,101324.00
2022-10-25T14:11:13.510Z,101326.41
2022-10-25T14:14:16.530Z,101321.94
2022-10-25T14:17:07.463Z,101305.41
2022-10-25T14:19:48.099Z,101310.34
2022-10-25T14:22:33.637Z,101314.19
2022-10-25T14:25:06.799Z,101308.03
2022-10-25T14:27:36.156Z,101294.94
2022-10-25T14:30:29.890Z,101302.50
2022-10-25T14:33:04.410Z,101297.19
2022-10-25T14:35:45.486Z,101298.00
2022-10-25T14:38:22.181Z,101295.97
2022-10-25T14:41:02.899Z,101300.50
2022-10-25T14:43:36.576Z,101302.97
2022-10-25T14:46:16.191Z,101304.59
2022-10-25T14:48:46.926Z,101293.53
2022-10-25T14:51:25.938Z,101293.69
2022-10-25T14:54:16.619Z,101295.34
2022-10-25T14:56:46.563Z,101295.16
2022-10-25T14:59:28.646Z,101295.59
2022-10-25T15:01:59.802Z,101303.69
2022-10-25T15:04:49.330Z,101301.03
2022-10-25T15:07:44.345Z,101294.63
2022-10-25T15:10:35.876Z,101285.69
2022-10-25T15:13:06.485Z,101287.97
2022-10-25T15:15:42.266Z,101294.16
2022-10-25T15:18:34.642Z,101299.78
2022-10-25T15:21:10.462Z,101290.59
2022-10-25T15:23:40.088Z,101295.53
2022-10-25T15:26:30.503Z,101289.19
2022-10-25T15:29:01.128Z,101282.59
2022-10-25T15:31:31.173Z,101283.66
2022-10-25T15:34:04.682Z,101282.44
2022-10-25T15:36:34.362Z,101270.53
2022-10-25T15:39:25.325Z,101262.78
2022-10-25T15:41:52.219Z,101268.69
2022-10-25T15:44:19.155Z,101261.34
2022-10-25T15:46:48.951Z,101259.81
2022-10-25T15:49:16.425Z,101261.78
2022-10-25T15:51:45.654Z,101256.44
2022-10-25T15:54:23.893Z,101247.97
2022-10-25T15:56:51.925Z,101251.91
2022-10-25T15:59:18.866Z,101251.41
2022-10-25T16:01:49.579Z,101251.38
2022-10-25T16:04:19.706Z,101246.56
2022-10-25T16:06:47.824Z,101249.09
2022-10-25T16:09:14.792Z,101248.84
2022-10-25T16:11:46.979Z,101248.63
2022-10-25T16:14:26.959Z,101246.03
2022-10-25T16:16:53.873Z,101243.66
2022-10-25T16:19:21.982Z,101248.94
2022-10-25T16:21:49.101Z,101247.03
2022-10-25T16:24:16.063Z,101252.22
2022-10-25T16:26:48.340Z,101258.00
2022-10-25T16:29:22.792Z,101244.94
2022-10-25T16:31:50.314Z,101247.75
2022-10-25T16:34:19.399Z,101250.25
2022-10-25T16:36:48.046Z,101249.06
2022-10-25T16:39:15.239Z,101251.47
2022-10-25T16:41:46.643Z,101247.00
2022-10-25T16:44:18.985Z,101254.19
2022-10-25T16:46:46.626Z,101246.91
2022-10-25T16:49:14.046Z,101242.50
2022-10-25T16:51:41.661Z,101245.59
2022-10-25T16:54:10.793Z,101241.41
2022-10-25T16:56:37.682Z,101240.00
2022-10-25T16:59:04.613Z,101232.91
2022-10-25T17:01:34.905Z,101222.13
2022-10-25T17:04:04.616Z,101225.69
2022-10-25T17:06:46.957Z,101218.50
2022-10-25T17:09:13.948Z,101222.69
2022-10-25T17:11:41.326Z,101227.72
2022-10-25T17:14:09.795Z,101222.31
2022-10-25T17:16:42.485Z,101219.78
2022-10-25T17:19:11.060Z,101214.56
2022-10-25T17:21:38.260Z,101221.31
2022-10-25T17:24:06.716Z,101219.66
2022-10-25T17:26:33.604Z,101211.66
2022-10-25T17:29:01.117Z,101215.72
2022-10-25T17:31:28.738Z,101222.44
2022-10-25T17:33:56.818Z,101215.44
2022-10-25T17:36:23.784Z,101219.94
2022-10-25T17:38:50.790Z,101221.09
2022-10-25T17:41:18.451Z,101215.34
2022-10-25T17:43:45.435Z,101217.56
2022-10-25T17:46:25.896Z,101213.25
2022-10-25T17:49:03.337Z,101211.22
2022-10-25T17:51:32.816Z,101209.78
2022-10-25T17:54:00.108Z,101217.56
2022-10-25T17:56:28.078Z,101219.78
2022-10-25T17:58:58.232Z,101220.50
2022-10-25T18:01:27.820Z,101212.22
2022-10-25T18:03:55.654Z,101211.94
2022-10-25T18:06:25.604Z,101205.38
2022-10-25T18:08:58.965Z,101199.13
2022-10-25T18:11:28.375Z,101199.59
2022-10-25T18:14:00.747Z,101202.38
2022-10-25T18:16:31.154Z,101203.47
2022-10-25T18:19:02.140Z,101206.94
2022-10-25T18:21:30.243Z,101196.84
2022-10-25T18:23:59.934Z,101199.59
2022-10-25T18:26:27.880Z,101198.38
2022-10-25T18:28:54.859Z,101197.56
2022-10-25T18:31:22.526Z,101194.19
2022-10-25T18:33:49.463Z,101196.25
2022-10-25T18:36:19.526Z,101194.44
2022-10-25T18:38:48.255Z,101192.53
2022-10-25T18:41:23.279Z,101193.19
2022-10-25T18:43:51.036Z,101190.78
2022-10-25T18:46:18.437Z,101194.19
2022-10-25T18:48:51.156Z,101186.97
2022-10-25T18:51:19.229Z,101190.47
2022-10-25T18:53:46.278Z,101176.84
2022-10-25T18:56:19.598Z,101183.41
2022-10-25T18:58:49.167Z,101181.22
2022-10-25T19:01:26.046Z,101178.91
2022-10-25T19:03:53.307Z,101170.88
2022-10-25T19:06:20.285Z,101175.31
2022-10-25T19:08:49.217Z,101165.84
2022-10-25T19:11:16.627Z,101170.47
2022-10-25T19:13:47.501Z,101166.25
2022-10-25T19:16:17.439Z,101168.22
2022-10-25T19:18:44.387Z,101163.94
2022-10-25T19:21:13.903Z,101161.56
2022-10-25T19:23:42.755Z,101153.16
2022-10-25T19:26:13.332Z,101152.97
2022-10-25T19:28:40.283Z,101147.34
2022-10-25T19:31:16.949Z,101147.69
2022-10-25T19:33:51.558Z,101143.06
2022-10-25T19:36:19.999Z,101145.22
2022-10-25T19:38:48.776Z,101143.56
2022-10-25T19:41:19.671Z,101139.19
2022-10-25T19:43:47.388Z,101144.59
2022-10-25T19:46:15.157Z,101138.56
2022-10-25T19:48:42.372Z,101144.78
2022-10-25T19:51:19.117Z,101133.75
2022-10-25T19:53:46.166Z,101132.38
2022-10-25T19:56:19.981Z,101130.84
2022-10-25T19:58:47.386Z,101134.13
2022-10-25T20:01:18.242Z,101125.72
2022-10-25T20:03:49.327Z,101130.66
2022-10-25T20:06:23.505Z,101127.94
2022-10-25T20:08:53.209Z,101122.66
2022-10-25T20:11:21.444Z,101116.66
2022-10-25T20:13:48.504Z,101118.03
2022-10-25T20:16:15.611Z,101120.38
2022-10-25T20:18:43.024Z,101122.41
2022-10-25T20:21:17.685Z,101116.22
2022-10-25T20:23:49.804Z,101109.72
2022-10-25T20:26:25.893Z,101113.00
2022-10-25T20:28:55.662Z,101112.63
2022-10-25T20:31:24.601Z,101108.16
2022-10-25T20:33:52.674Z,101107.47
2022-10-25T20:36:20.149Z,101101.53
2022-10-25T20:38:47.322Z,101096.09
2022-10-25T20:41:20.770Z,101109.34
2022-10-25T20:43:53.589Z,101105.78
2022-10-25T20:46:23.820Z,101108.78
2022-10-25T20:48:51.756Z,101101.84
2022-10-25T20:51:19.110Z,101105.94
2022-10-25T20:53:48.670Z,101106.47
2022-10-25T20:56:17.553Z,101107.03
2022-10-25T20:58:44.856Z,101105.56
2022-10-25T21:01:12.664Z,101106.06
2022-10-25T21:03:40.572Z,101103.13
2022-10-25T21:06:10.593Z,101103.66
2022-10-25T21:08:38.068Z,101094.66
2022-10-25T21:11:09.321Z,101102.75
2022-10-25T21:13:37.482Z,101104.47
2022-10-25T21:16:14.042Z,101105.25
2022-10-25T21:18:42.430Z,101112.31
2022-10-25T21:21:19.690Z,101110.63
2022-10-25T21:23:47.926Z,101113.81
2022-10-25T21:26:15.574Z,101105.97
2022-10-25T21:28:42.717Z,101099.44
2022-10-25T21:31:13.263Z,101107.03
2022-10-25T21:33:46.490Z,101099.97
2022-10-25T21:36:17.309Z,101105.72
2022-10-25T21:38:44.307Z,101100.78
2022-10-25T21:41:19.774Z,101099.81
2022-10-25T21:43:49.193Z,101095.88
2022-10-25T21:46:18.451Z,101090.78
2022-10-25T21:48:50.734Z,101092.44
2022-10-25T21:51:24.245Z,101089.53
2022-10-25T21:56:30.035Z,101096.88
2022-10-25T21:58:59.312Z,101094.06
2022-10-25T22:01:28.844Z,101095.28
2022-10-25T22:03:55.961Z,101091.19
2022-10-25T22:06:25.569Z,101086.97
2022-10-25T22:08:55.154Z,101084.13
2022-10-25T22:11:26.077Z,101083.66
2022-10-25T22:14:02.777Z,101071.47
2022-10-25T22:16:31.678Z,101081.09
2022-10-25T22:19:03.065Z,101078.44
2022-10-25T22:21:36.708Z,101072.59
2022-10-25T22:24:05.418Z,101071.84
2022-10-25T22:26:32.542Z,101074.81
2022-10-25T22:29:00.216Z,101067.09
2022-10-25T22:31:29.852Z,101066.19
2022-10-25T22:34:03.865Z,101056.53
2022-10-25T22:36:38.303Z,101056.59
2022-10-25T22:39:07.122Z,101045.84
2022-10-25T22:41:34.470Z,101041.06
2022-10-25T22:44:01.879Z,101047.41
2022-10-25T22:46:32.724Z,101026.44
2022-10-25T22:49:05.118Z,101026.75
2022-10-25T22:51:32.323Z,101022.97
2022-10-25T22:53:59.228Z,101021.78
2022-10-25T22:56:30.865Z,101023.06
2022-10-25T22:59:01.387Z,101015.31
2022-10-25T23:01:34.147Z,101019.41
2022-10-25T23:04:04.226Z,101006.94
2022-10-25T23:06:38.300Z,101007.66
2022-10-25T23:09:11.734Z,101004.94
2022-10-25T23:11:40.507Z,101005.13
2022-10-25T23:14:13.350Z,101002.22
2022-10-25T23:16:43.536Z,101002.28
2022-10-25T23:19:10.436Z,100993.38
2022-10-25T23:21:37.318Z,100999.00
2022-10-25T23:24:04.625Z,100996.59
2022-10-25T23:26:34.233Z,100985.97
2022-10-25T23:29:02.275Z,100989.31
2022-10-25T23:31:30.446Z,100976.19
2022-10-25T23:34:00.211Z,100982.91
2022-10-25T23:36:30.522Z,100980.97
2022-10-25T23:38:58.927Z,100978.72
2022-10-25T23:41:25.888Z,100977.41
2022-10-25T23:43:52.998Z,100978.94
2022-10-25T23:46:20.252Z,100969.00
2022-10-25T23:48:47.475Z,100966.34
2022-10-25T23:51:17.911Z,100965.50
2022-10-25T23:53:45.618Z,100962.59
2022-10-25T23:56:13.959Z,100965.38
2022-10-25T23:58:41.329Z,100963.03
